Terminal Aerodrome Forecast
Issued by NWS Sioux Falls, SD

Home | Current Version | Previous Version | Text Only | Print | Product List | Glossary On
Versions: 1 2 3 4 5 6 7 8 9 10 11 12 13 14
000
FTUS43 KFSD 231120
TAFFSD
TAF
KFSD 231120Z 2312/2412 31014G23KT P6SM BKN100 WS010/31040KT
     FM231400 30018G27KT P6SM FEW200
     FM231700 31026G38KT P6SM BKN080
     FM232300 33019G28KT P6SM BKN080
     FM240200 33015KT P6SM SCT100
     FM240400 33021G30KT P6SM BKN100=

USA.gov is the U.S. government's official web portal to all federal, state and local government web resources and services.